sensor_id;sensor_type;location;lat;lon;timestamp;P1;durP1;ratioP1;P2;durP2;ratioP2
19889;SDS011;10107;51.198;6.824;2024-01-16T00:01:28;14.65;;;9.35;;
19889;SDS011;10107;51.198;6.824;2024-01-16T00:05:30;12.10;;;8.63;;
19889;SDS011;10107;51.198;6.824;2024-01-16T00:09:32;13.05;;;8.57;;
19889;SDS011;10107;51.198;6.824;2024-01-16T00:13:35;13.18;;;7.53;;
19889;SDS011;10107;51.198;6.824;2024-01-16T00:17:37;11.15;;;8.38;;
19889;SDS011;10107;51.198;6.824;2024-01-16T00:21:39;11.57;;;7.55;;
19889;SDS011;10107;51.198;6.824;2024-01-16T00:25:41;16.63;;;8.37;;
19889;SDS011;10107;51.198;6.824;2024-01-16T00:29:44;13.18;;;8.00;;
19889;SDS011;10107;51.198;6.824;2024-01-16T00:33:46;14.95;;;8.07;;
19889;SDS011;10107;51.198;6.824;2024-01-16T00:37:48;12.05;;;7.32;;
19889;SDS011;10107;51.198;6.824;2024-01-16T00:41:50;13.18;;;8.43;;
19889;SDS011;10107;51.198;6.824;2024-01-16T00:45:53;14.80;;;8.82;;
19889;SDS011;10107;51.198;6.824;2024-01-16T00:49:54;12.25;;;8.32;;
19889;SDS011;10107;51.198;6.824;2024-01-16T00:53:56;13.25;;;7.72;;
19889;SDS011;10107;51.198;6.824;2024-01-16T00:57:58;15.05;;;8.95;;
19889;SDS011;10107;51.198;6.824;2024-01-16T01:02:01;13.80;;;8.63;;
19889;SDS011;10107;51.198;6.824;2024-01-16T01:06:04;16.95;;;8.95;;
19889;SDS011;10107;51.198;6.824;2024-01-16T01:10:06;12.25;;;7.40;;
19889;SDS011;10107;51.198;6.824;2024-01-16T01:14:08;17.25;;;10.57;;
19889;SDS011;10107;51.198;6.824;2024-01-16T01:18:12;17.77;;;10.80;;
19889;SDS011;10107;51.198;6.824;2024-01-16T01:22:13;19.73;;;11.60;;
19889;SDS011;10107;51.198;6.824;2024-01-16T01:26:15;16.40;;;10.35;;
19889;SDS011;10107;51.198;6.824;2024-01-16T01:30:18;21.60;;;12.98;;
19889;SDS011;10107;51.198;6.824;2024-01-16T01:34:21;18.92;;;11.48;;
19889;SDS011;10107;51.198;6.824;2024-01-16T01:42:24;24.85;;;13.45;;
19889;SDS011;10107;51.198;6.824;2024-01-16T01:46:26;20.58;;;11.90;;
19889;SDS011;10107;51.198;6.824;2024-01-16T01:50:30;18.40;;;11.18;;
19889;SDS011;10107;51.198;6.824;2024-01-16T01:54:32;17.50;;;10.32;;
19889;SDS011;10107;51.198;6.824;2024-01-16T01:58:36;19.02;;;11.27;;
19889;SDS011;10107;51.198;6.824;2024-01-16T02:02:39;18.63;;;11.27;;
19889;SDS011;10107;51.198;6.824;2024-01-16T02:06:44;19.90;;;11.57;;
19889;SDS011;10107;51.198;6.824;2024-01-16T02:10:45;16.27;;;10.10;;
19889;SDS011;10107;51.198;6.824;2024-01-16T02:14:50;18.35;;;10.65;;
19889;SDS011;10107;51.198;6.824;2024-01-16T02:18:52;17.00;;;10.77;;
19889;SDS011;10107;51.198;6.824;2024-01-16T02:22:55;18.38;;;10.95;;
19889;SDS011;10107;51.198;6.824;2024-01-16T02:27:02;20.52;;;11.63;;
19889;SDS011;10107;51.198;6.824;2024-01-16T02:31:05;21.55;;;12.85;;
19889;SDS011;10107;51.198;6.824;2024-01-16T02:39:10;19.30;;;11.88;;
19889;SDS011;10107;51.198;6.824;2024-01-16T02:43:14;22.45;;;12.65;;
19889;SDS011;10107;51.198;6.824;2024-01-16T02:51:17;25.60;;;13.10;;
19889;SDS011;10107;51.198;6.824;2024-01-16T02:55:19;22.02;;;12.23;;
19889;SDS011;10107;51.198;6.824;2024-01-16T02:59:22;22.15;;;12.38;;
19889;SDS011;10107;51.198;6.824;2024-01-16T03:03:23;18.50;;;11.50;;
19889;SDS011;10107;51.198;6.824;2024-01-16T03:07:25;18.48;;;10.60;;
19889;SDS011;10107;51.198;6.824;2024-01-16T03:11:27;16.80;;;10.30;;
19889;SDS011;10107;51.198;6.824;2024-01-16T03:15:30;20.67;;;11.98;;
19889;SDS011;10107;51.198;6.824;2024-01-16T03:19:32;19.05;;;10.88;;
19889;SDS011;10107;51.198;6.824;2024-01-16T03:23:34;18.77;;;11.10;;
19889;SDS011;10107;51.198;6.824;2024-01-16T03:27:36;18.35;;;11.32;;
19889;SDS011;10107;51.198;6.824;2024-01-16T03:31:39;17.77;;;10.13;;
19889;SDS011;10107;51.198;6.824;2024-01-16T03:35:40;16.10;;;9.57;;
19889;SDS011;10107;51.198;6.824;2024-01-16T03:39:42;17.10;;;9.38;;
19889;SDS011;10107;51.198;6.824;2024-01-16T03:43:45;16.40;;;9.97;;
19889;SDS011;10107;51.198;6.824;2024-01-16T03:47:48;13.82;;;8.90;;
19889;SDS011;10107;51.198;6.824;2024-01-16T03:51:51;16.77;;;9.45;;
19889;SDS011;10107;51.198;6.824;2024-01-16T03:55:53;16.30;;;8.68;;
19889;SDS011;10107;51.198;6.824;2024-01-16T03:59:55;15.25;;;8.98;;
19889;SDS011;10107;51.198;6.824;2024-01-16T04:03:58;16.80;;;9.25;;
19889;SDS011;10107;51.198;6.824;2024-01-16T04:08:00;17.70;;;9.60;;
19889;SDS011;10107;51.198;6.824;2024-01-16T04:12:02;14.35;;;8.88;;
19889;SDS011;10107;51.198;6.824;2024-01-16T04:16:04;14.73;;;8.63;;
19889;SDS011;10107;51.198;6.824;2024-01-16T04:20:08;11.93;;;7.63;;
19889;SDS011;10107;51.198;6.824;2024-01-16T04:24:10;16.73;;;9.95;;
19889;SDS011;10107;51.198;6.824;2024-01-16T04:28:12;11.32;;;7.80;;
19889;SDS011;10107;51.198;6.824;2024-01-16T04:32:14;11.27;;;6.88;;
19889;SDS011;10107;51.198;6.824;2024-01-16T04:36:17;12.10;;;7.20;;
19889;SDS011;10107;51.198;6.824;2024-01-16T04:40:19;12.50;;;6.68;;
19889;SDS011;10107;51.198;6.824;2024-01-16T04:44:22;13.65;;;7.63;;
19889;SDS011;10107;51.198;6.824;2024-01-16T04:48:24;12.98;;;7.25;;
19889;SDS011;10107;51.198;6.824;2024-01-16T04:52:27;17.15;;;8.50;;
19889;SDS011;10107;51.198;6.824;2024-01-16T04:56:29;13.43;;;8.05;;
19889;SDS011;10107;51.198;6.824;2024-01-16T05:00:30;17.92;;;9.75;;
19889;SDS011;10107;51.198;6.824;2024-01-16T05:04:32;17.23;;;9.60;;
19889;SDS011;10107;51.198;6.824;2024-01-16T05:08:35;19.40;;;10.85;;
19889;SDS011;10107;51.198;6.824;2024-01-16T05:12:37;18.70;;;11.15;;
19889;SDS011;10107;51.198;6.824;2024-01-16T05:16:38;16.65;;;9.52;;
19889;SDS011;10107;51.198;6.824;2024-01-16T05:20:40;20.92;;;10.57;;
19889;SDS011;10107;51.198;6.824;2024-01-16T05:24:43;15.60;;;10.05;;
19889;SDS011;10107;51.198;6.824;2024-01-16T05:28:45;16.73;;;9.32;;
19889;SDS011;10107;51.198;6.824;2024-01-16T05:32:47;17.88;;;9.07;;
19889;SDS011;10107;51.198;6.824;2024-01-16T05:36:48;17.15;;;9.00;;
19889;SDS011;10107;51.198;6.824;2024-01-16T05:40:51;13.50;;;8.45;;
19889;SDS011;10107;51.198;6.824;2024-01-16T05:44:53;22.15;;;10.00;;
19889;SDS011;10107;51.198;6.824;2024-01-16T05:48:55;14.02;;;9.18;;
19889;SDS011;10107;51.198;6.824;2024-01-16T05:52:57;17.08;;;9.43;;
19889;SDS011;10107;51.198;6.824;2024-01-16T05:57:00;16.77;;;7.72;;
19889;SDS011;10107;51.198;6.824;2024-01-16T06:01:02;18.80;;;9.63;;
19889;SDS011;10107;51.198;6.824;2024-01-16T06:05:04;17.25;;;8.55;;
19889;SDS011;10107;51.198;6.824;2024-01-16T06:09:07;15.88;;;8.02;;
19889;SDS011;10107;51.198;6.824;2024-01-16T06:13:10;14.43;;;7.28;;
19889;SDS011;10107;51.198;6.824;2024-01-16T06:17:12;11.82;;;6.45;;
19889;SDS011;10107;51.198;6.824;2024-01-16T06:21:14;14.90;;;6.65;;
19889;SDS011;10107;51.198;6.824;2024-01-16T06:25:16;15.52;;;6.25;;
19889;SDS011;10107;51.198;6.824;2024-01-16T06:29:19;12.13;;;5.78;;
19889;SDS011;10107;51.198;6.824;2024-01-16T06:33:21;14.30;;;6.07;;
19889;SDS011;10107;51.198;6.824;2024-01-16T06:37:23;10.70;;;5.30;;
19889;SDS011;10107;51.198;6.824;2024-01-16T06:41:24;11.43;;;5.05;;
19889;SDS011;10107;51.198;6.824;2024-01-16T06:45:27;7.80;;;5.00;;
19889;SDS011;10107;51.198;6.824;2024-01-16T06:49:29;8.13;;;5.00;;
19889;SDS011;10107;51.198;6.824;2024-01-16T06:53:31;11.68;;;5.30;;
19889;SDS011;10107;51.198;6.824;2024-01-16T06:57:33;12.35;;;4.80;;
19889;SDS011;10107;51.198;6.824;2024-01-16T07:01:36;11.95;;;4.82;;
19889;SDS011;10107;51.198;6.824;2024-01-16T07:05:38;11.50;;;4.80;;
19889;SDS011;10107;51.198;6.824;2024-01-16T07:09:41;5.47;;;2.92;;
19889;SDS011;10107;51.198;6.824;2024-01-16T07:13:43;10.98;;;4.55;;
19889;SDS011;10107;51.198;6.824;2024-01-16T07:17:46;11.77;;;4.20;;
19889;SDS011;10107;51.198;6.824;2024-01-16T07:21:48;9.65;;;3.80;;
19889;SDS011;10107;51.198;6.824;2024-01-16T07:25:50;6.75;;;3.65;;
19889;SDS011;10107;51.198;6.824;2024-01-16T07:29:52;7.18;;;3.20;;
19889;SDS011;10107;51.198;6.824;2024-01-16T07:33:55;9.25;;;3.25;;
19889;SDS011;10107;51.198;6.824;2024-01-16T07:37:56;12.20;;;3.80;;
19889;SDS011;10107;51.198;6.824;2024-01-16T07:41:58;9.82;;;3.80;;
19889;SDS011;10107;51.198;6.824;2024-01-16T07:46:00;8.02;;;3.90;;
19889;SDS011;10107;51.198;6.824;2024-01-16T07:50:03;9.75;;;3.65;;
19889;SDS011;10107;51.198;6.824;2024-01-16T07:54:07;7.03;;;3.42;;
19889;SDS011;10107;51.198;6.824;2024-01-16T07:58:10;6.40;;;3.10;;
19889;SDS011;10107;51.198;6.824;2024-01-16T08:02:12;8.43;;;3.80;;
19889;SDS011;10107;51.198;6.824;2024-01-16T08:06:15;9.60;;;3.63;;
19889;SDS011;10107;51.198;6.824;2024-01-16T08:14:19;7.32;;;3.40;;
19889;SDS011;10107;51.198;6.824;2024-01-16T08:18:20;8.98;;;4.00;;
19889;SDS011;10107;51.198;6.824;2024-01-16T08:22:24;10.88;;;3.95;;
19889;SDS011;10107;51.198;6.824;2024-01-16T08:26:25;11.13;;;4.18;;
19889;SDS011;10107;51.198;6.824;2024-01-16T08:30:27;11.07;;;4.32;;
19889;SDS011;10107;51.198;6.824;2024-01-16T08:34:29;11.95;;;4.30;;
19889;SDS011;10107;51.198;6.824;2024-01-16T08:38:32;12.25;;;4.18;;
19889;SDS011;10107;51.198;6.824;2024-01-16T08:42:33;8.75;;;4.30;;
19889;SDS011;10107;51.198;6.824;2024-01-16T08:46:35;12.27;;;4.63;;
19889;SDS011;10107;51.198;6.824;2024-01-16T08:50:37;12.23;;;4.65;;
19889;SDS011;10107;51.198;6.824;2024-01-16T08:54:40;10.70;;;4.45;;
19889;SDS011;10107;51.198;6.824;2024-01-16T08:58:41;8.88;;;5.00;;
19889;SDS011;10107;51.198;6.824;2024-01-16T09:02:43;11.75;;;4.85;;
19889;SDS011;10107;51.198;6.824;2024-01-16T09:06:45;8.80;;;4.93;;
19889;SDS011;10107;51.198;6.824;2024-01-16T09:10:48;8.70;;;4.45;;
19889;SDS011;10107;51.198;6.824;2024-01-16T09:14:50;11.18;;;4.68;;
19889;SDS011;10107;51.198;6.824;2024-01-16T09:18:52;14.10;;;4.90;;
19889;SDS011;10107;51.198;6.824;2024-01-16T09:22:55;10.15;;;4.40;;
19889;SDS011;10107;51.198;6.824;2024-01-16T09:26:58;11.15;;;4.15;;
19889;SDS011;10107;51.198;6.824;2024-01-16T09:30:59;10.82;;;4.95;;
19889;SDS011;10107;51.198;6.824;2024-01-16T09:35:01;11.85;;;4.60;;
19889;SDS011;10107;51.198;6.824;2024-01-16T09:39:06;10.02;;;3.67;;
19889;SDS011;10107;51.198;6.824;2024-01-16T09:43:10;10.83;;;4.77;;
19889;SDS011;10107;51.198;6.824;2024-01-16T09:47:13;9.30;;;4.03;;
19889;SDS011;10107;51.198;6.824;2024-01-16T09:51:16;9.88;;;4.60;;
19889;SDS011;10107;51.198;6.824;2024-01-16T09:55:18;12.00;;;4.60;;
19889;SDS011;10107;51.198;6.824;2024-01-16T09:59:23;8.95;;;4.03;;
19889;SDS011;10107;51.198;6.824;2024-01-16T10:03:25;12.52;;;4.82;;
19889;SDS011;10107;51.198;6.824;2024-01-16T10:07:30;10.38;;;4.45;;
19889;SDS011;10107;51.198;6.824;2024-01-16T10:11:33;9.75;;;3.97;;
19889;SDS011;10107;51.198;6.824;2024-01-16T10:15:37;8.27;;;4.00;;
19889;SDS011;10107;51.198;6.824;2024-01-16T10:19:47;10.13;;;4.45;;
19889;SDS011;10107;51.198;6.824;2024-01-16T10:23:49;8.95;;;4.20;;
19889;SDS011;10107;51.198;6.824;2024-01-16T10:28:02;7.60;;;3.88;;
19889;SDS011;10107;51.198;6.824;2024-01-16T10:32:08;9.45;;;4.03;;
19889;SDS011;10107;51.198;6.824;2024-01-16T10:36:11;6.50;;;3.70;;
19889;SDS011;10107;51.198;6.824;2024-01-16T10:40:14;6.55;;;3.33;;
19889;SDS011;10107;51.198;6.824;2024-01-16T10:44:17;8.15;;;3.30;;
19889;SDS011;10107;51.198;6.824;2024-01-16T10:48:20;8.48;;;3.58;;
19889;SDS011;10107;51.198;6.824;2024-01-16T10:52:21;8.95;;;3.53;;
19889;SDS011;10107;51.198;6.824;2024-01-16T10:56:29;15.35;;;4.70;;
19889;SDS011;10107;51.198;6.824;2024-01-16T11:00:31;5.82;;;3.30;;
19889;SDS011;10107;51.198;6.824;2024-01-16T11:04:39;8.23;;;3.80;;
19889;SDS011;10107;51.198;6.824;2024-01-16T11:08:45;10.90;;;3.78;;
19889;SDS011;10107;51.198;6.824;2024-01-16T11:12:47;8.25;;;3.80;;
19889;SDS011;10107;51.198;6.824;2024-01-16T11:16:50;9.93;;;4.43;;
19889;SDS011;10107;51.198;6.824;2024-01-16T11:20:54;8.93;;;4.03;;
19889;SDS011;10107;51.198;6.824;2024-01-16T11:25:09;10.90;;;3.85;;
19889;SDS011;10107;51.198;6.824;2024-01-16T11:33:43;10.23;;;4.50;;
19889;SDS011;10107;51.198;6.824;2024-01-16T11:37:47;11.57;;;4.20;;
19889;SDS011;10107;51.198;6.824;2024-01-16T11:41:49;10.27;;;3.95;;
19889;SDS011;10107;51.198;6.824;2024-01-16T11:45:54;9.02;;;4.13;;
19889;SDS011;10107;51.198;6.824;2024-01-16T11:50:07;9.02;;;4.13;;
19889;SDS011;10107;51.198;6.824;2024-01-16T11:54:12;8.30;;;4.03;;
19889;SDS011;10107;51.198;6.824;2024-01-16T11:58:24;9.73;;;4.13;;
19889;SDS011;10107;51.198;6.824;2024-01-16T12:02:42;8.93;;;3.90;;
19889;SDS011;10107;51.198;6.824;2024-01-16T12:06:56;10.45;;;4.50;;
19889;SDS011;10107;51.198;6.824;2024-01-16T12:11:00;10.07;;;4.28;;
19889;SDS011;10107;51.198;6.824;2024-01-16T12:19:05;8.23;;;4.40;;
19889;SDS011;10107;51.198;6.824;2024-01-16T12:23:08;13.82;;;4.95;;
19889;SDS011;10107;51.198;6.824;2024-01-16T12:27:11;9.48;;;4.00;;
19889;SDS011;10107;51.198;6.824;2024-01-16T12:31:17;9.90;;;4.25;;
19889;SDS011;10107;51.198;6.824;2024-01-16T12:35:19;10.27;;;5.10;;
19889;SDS011;10107;51.198;6.824;2024-01-16T12:39:21;8.13;;;4.15;;
19889;SDS011;10107;51.198;6.824;2024-01-16T12:43:24;8.85;;;4.40;;
19889;SDS011;10107;51.198;6.824;2024-01-16T12:47:26;9.52;;;4.45;;
19889;SDS011;10107;51.198;6.824;2024-01-16T12:51:28;10.77;;;4.75;;
19889;SDS011;10107;51.198;6.824;2024-01-16T12:55:29;8.77;;;4.30;;
19889;SDS011;10107;51.198;6.824;2024-01-16T12:59:32;10.95;;;4.65;;
19889;SDS011;10107;51.198;6.824;2024-01-16T13:03:34;8.82;;;4.28;;
19889;SDS011;10107;51.198;6.824;2024-01-16T13:07:36;12.85;;;4.85;;
19889;SDS011;10107;51.198;6.824;2024-01-16T13:11:48;9.27;;;4.53;;
19889;SDS011;10107;51.198;6.824;2024-01-16T13:15:52;10.90;;;4.95;;
19889;SDS011;10107;51.198;6.824;2024-01-16T13:19:53;8.52;;;4.47;;
19889;SDS011;10107;51.198;6.824;2024-01-16T13:23:55;12.30;;;4.40;;
19889;SDS011;10107;51.198;6.824;2024-01-16T13:27:57;8.45;;;4.40;;
19889;SDS011;10107;51.198;6.824;2024-01-16T13:32:00;9.40;;;4.20;;
19889;SDS011;10107;51.198;6.824;2024-01-16T13:36:02;7.00;;;4.28;;
19889;SDS011;10107;51.198;6.824;2024-01-16T13:40:05;8.93;;;3.65;;
19889;SDS011;10107;51.198;6.824;2024-01-16T13:44:10;8.25;;;4.47;;
19889;SDS011;10107;51.198;6.824;2024-01-16T13:48:13;9.07;;;4.15;;
19889;SDS011;10107;51.198;6.824;2024-01-16T13:52:15;9.48;;;4.85;;
19889;SDS011;10107;51.198;6.824;2024-01-16T13:56:16;8.60;;;4.63;;
19889;SDS011;10107;51.198;6.824;2024-01-16T14:00:18;9.32;;;5.53;;
19889;SDS011;10107;51.198;6.824;2024-01-16T14:04:21;7.20;;;4.45;;
19889;SDS011;10107;51.198;6.824;2024-01-16T14:08:22;11.65;;;4.60;;
19889;SDS011;10107;51.198;6.824;2024-01-16T14:12:24;8.75;;;4.57;;
19889;SDS011;10107;51.198;6.824;2024-01-16T14:16:27;9.88;;;4.60;;
19889;SDS011;10107;51.198;6.824;2024-01-16T14:20:30;9.48;;;4.50;;
19889;SDS011;10107;51.198;6.824;2024-01-16T14:24:32;10.55;;;4.82;;
19889;SDS011;10107;51.198;6.824;2024-01-16T14:28:34;9.23;;;4.32;;
19889;SDS011;10107;51.198;6.824;2024-01-16T14:32:35;6.70;;;4.55;;
19889;SDS011;10107;51.198;6.824;2024-01-16T14:36:39;7.57;;;4.55;;
19889;SDS011;10107;51.198;6.824;2024-01-16T14:40:41;9.70;;;5.25;;
19889;SDS011;10107;51.198;6.824;2024-01-16T14:44:43;12.80;;;4.53;;
19889;SDS011;10107;51.198;6.824;2024-01-16T14:48:44;8.10;;;4.22;;
19889;SDS011;10107;51.198;6.824;2024-01-16T14:52:48;8.52;;;4.38;;
19889;SDS011;10107;51.198;6.824;2024-01-16T14:56:50;12.70;;;4.43;;
19889;SDS011;10107;51.198;6.824;2024-01-16T15:00:52;9.25;;;4.63;;
19889;SDS011;10107;51.198;6.824;2024-01-16T15:04:54;7.28;;;4.07;;
19889;SDS011;10107;51.198;6.824;2024-01-16T15:08:57;6.85;;;4.20;;
19889;SDS011;10107;51.198;6.824;2024-01-16T15:12:58;9.57;;;4.40;;
19889;SDS011;10107;51.198;6.824;2024-01-16T15:17:00;8.65;;;4.88;;
19889;SDS011;10107;51.198;6.824;2024-01-16T15:21:02;6.35;;;3.72;;
19889;SDS011;10107;51.198;6.824;2024-01-16T15:25:06;8.30;;;4.13;;
19889;SDS011;10107;51.198;6.824;2024-01-16T15:29:08;7.47;;;4.43;;
19889;SDS011;10107;51.198;6.824;2024-01-16T15:33:10;10.88;;;5.50;;
19889;SDS011;10107;51.198;6.824;2024-01-16T15:37:11;8.70;;;4.97;;
19889;SDS011;10107;51.198;6.824;2024-01-16T15:41:14;7.38;;;4.43;;
19889;SDS011;10107;51.198;6.824;2024-01-16T15:45:16;10.85;;;5.22;;
19889;SDS011;10107;51.198;6.824;2024-01-16T15:49:18;10.65;;;5.00;;
19889;SDS011;10107;51.198;6.824;2024-01-16T15:53:19;9.95;;;5.22;;
19889;SDS011;10107;51.198;6.824;2024-01-16T15:57:22;11.85;;;5.38;;
19889;SDS011;10107;51.198;6.824;2024-01-16T16:01:24;9.73;;;5.55;;
19889;SDS011;10107;51.198;6.824;2024-01-16T16:05:27;8.97;;;5.33;;
19889;SDS011;10107;51.198;6.824;2024-01-16T16:09:28;9.20;;;5.25;;
19889;SDS011;10107;51.198;6.824;2024-01-16T16:13:31;11.57;;;5.53;;
19889;SDS011;10107;51.198;6.824;2024-01-16T16:17:33;12.02;;;6.75;;
19889;SDS011;10107;51.198;6.824;2024-01-16T16:21:35;10.63;;;5.60;;
19889;SDS011;10107;51.198;6.824;2024-01-16T16:25:39;13.80;;;6.50;;
19889;SDS011;10107;51.198;6.824;2024-01-16T16:29:47;12.52;;;6.70;;
19889;SDS011;10107;51.198;6.824;2024-01-16T16:33:49;10.13;;;6.45;;
19889;SDS011;10107;51.198;6.824;2024-01-16T16:37:50;12.15;;;6.60;;
19889;SDS011;10107;51.198;6.824;2024-01-16T16:41:52;11.15;;;6.70;;
19889;SDS011;10107;51.198;6.824;2024-01-16T16:45:55;12.88;;;7.15;;
19889;SDS011;10107;51.198;6.824;2024-01-16T16:49:57;12.85;;;6.63;;
19889;SDS011;10107;51.198;6.824;2024-01-16T16:53:59;10.18;;;6.57;;
19889;SDS011;10107;51.198;6.824;2024-01-16T16:58:01;15.77;;;8.82;;
19889;SDS011;10107;51.198;6.824;2024-01-16T17:02:06;16.77;;;10.27;;
19889;SDS011;10107;51.198;6.824;2024-01-16T17:06:08;23.67;;;14.60;;
19889;SDS011;10107;51.198;6.824;2024-01-16T17:10:10;25.20;;;15.98;;
19889;SDS011;10107;51.198;6.824;2024-01-16T17:14:12;19.63;;;11.50;;
19889;SDS011;10107;51.198;6.824;2024-01-16T17:18:16;13.25;;;8.43;;
19889;SDS011;10107;51.198;6.824;2024-01-16T17:22:18;13.93;;;8.52;;
19889;SDS011;10107;51.198;6.824;2024-01-16T17:26:20;13.80;;;8.07;;
19889;SDS011;10107;51.198;6.824;2024-01-16T17:30:22;15.07;;;7.10;;
19889;SDS011;10107;51.198;6.824;2024-01-16T17:34:25;15.90;;;7.32;;
19889;SDS011;10107;51.198;6.824;2024-01-16T17:38:26;15.15;;;7.13;;
19889;SDS011;10107;51.198;6.824;2024-01-16T17:42:29;13.00;;;7.45;;
19889;SDS011;10107;51.198;6.824;2024-01-16T17:46:30;10.80;;;7.38;;
19889;SDS011;10107;51.198;6.824;2024-01-16T17:50:35;17.35;;;7.90;;
19889;SDS011;10107;51.198;6.824;2024-01-16T17:54:37;12.38;;;7.60;;
19889;SDS011;10107;51.198;6.824;2024-01-16T17:58:40;13.10;;;7.30;;
19889;SDS011;10107;51.198;6.824;2024-01-16T18:02:42;12.98;;;8.00;;
19889;SDS011;10107;51.198;6.824;2024-01-16T18:06:45;11.18;;;7.15;;
19889;SDS011;10107;51.198;6.824;2024-01-16T18:14:53;14.40;;;8.57;;
19889;SDS011;10107;51.198;6.824;2024-01-16T18:18:55;15.68;;;9.30;;
19889;SDS011;10107;51.198;6.824;2024-01-16T18:22:58;16.40;;;9.13;;
19889;SDS011;10107;51.198;6.824;2024-01-16T18:27:00;16.25;;;10.20;;
19889;SDS011;10107;51.198;6.824;2024-01-16T18:31:01;24.38;;;10.82;;
19889;SDS011;10107;51.198;6.824;2024-01-16T18:35:03;22.88;;;12.20;;
19889;SDS011;10107;51.198;6.824;2024-01-16T18:39:10;19.27;;;11.57;;
19889;SDS011;10107;51.198;6.824;2024-01-16T18:43:13;24.30;;;11.95;;
19889;SDS011;10107;51.198;6.824;2024-01-16T18:47:15;22.73;;;12.35;;
19889;SDS011;10107;51.198;6.824;2024-01-16T18:51:17;22.10;;;11.65;;
19889;SDS011;10107;51.198;6.824;2024-01-16T18:55:20;22.15;;;11.52;;
19889;SDS011;10107;51.198;6.824;2024-01-16T19:03:24;12.18;;;7.28;;
19889;SDS011;10107;51.198;6.824;2024-01-16T19:07:25;10.55;;;6.63;;
19889;SDS011;10107;51.198;6.824;2024-01-16T19:11:29;10.73;;;7.13;;
19889;SDS011;10107;51.198;6.824;2024-01-16T19:15:30;11.43;;;6.50;;
19889;SDS011;10107;51.198;6.824;2024-01-16T19:19:32;12.00;;;7.30;;
19889;SDS011;10107;51.198;6.824;2024-01-16T19:23:36;10.02;;;6.80;;
19889;SDS011;10107;51.198;6.824;2024-01-16T19:27:40;10.93;;;6.60;;
19889;SDS011;10107;51.198;6.824;2024-01-16T19:31:43;12.15;;;6.07;;
19889;SDS011;10107;51.198;6.824;2024-01-16T19:35:46;12.45;;;6.18;;
19889;SDS011;10107;51.198;6.824;2024-01-16T19:39:49;13.85;;;7.47;;
19889;SDS011;10107;51.198;6.824;2024-01-16T19:43:52;9.52;;;6.25;;
19889;SDS011;10107;51.198;6.824;2024-01-16T19:47:54;12.52;;;6.93;;
19889;SDS011;10107;51.198;6.824;2024-01-16T19:51:56;13.25;;;6.75;;
19889;SDS011;10107;51.198;6.824;2024-01-16T19:55:58;9.63;;;5.20;;
19889;SDS011;10107;51.198;6.824;2024-01-16T20:00:07;15.57;;;8.52;;
19889;SDS011;10107;51.198;6.824;2024-01-16T20:04:12;11.95;;;7.10;;
19889;SDS011;10107;51.198;6.824;2024-01-16T20:08:16;11.38;;;6.65;;
19889;SDS011;10107;51.198;6.824;2024-01-16T20:12:18;11.25;;;7.32;;
19889;SDS011;10107;51.198;6.824;2024-01-16T20:16:22;17.30;;;8.77;;
19889;SDS011;10107;51.198;6.824;2024-01-16T20:24:25;11.52;;;6.93;;
19889;SDS011;10107;51.198;6.824;2024-01-16T20:28:29;13.63;;;7.43;;
19889;SDS011;10107;51.198;6.824;2024-01-16T20:32:32;11.35;;;6.80;;
19889;SDS011;10107;51.198;6.824;2024-01-16T20:36:34;8.70;;;6.55;;
19889;SDS011;10107;51.198;6.824;2024-01-16T20:40:37;11.63;;;7.18;;
19889;SDS011;10107;51.198;6.824;2024-01-16T20:44:40;14.18;;;7.60;;
19889;SDS011;10107;51.198;6.824;2024-01-16T20:48:42;14.98;;;6.97;;
19889;SDS011;10107;51.198;6.824;2024-01-16T20:52:46;14.98;;;7.32;;
19889;SDS011;10107;51.198;6.824;2024-01-16T20:56:47;16.17;;;8.07;;
19889;SDS011;10107;51.198;6.824;2024-01-16T21:00:49;13.95;;;8.25;;
19889;SDS011;10107;51.198;6.824;2024-01-16T21:04:53;13.52;;;8.32;;
19889;SDS011;10107;51.198;6.824;2024-01-16T21:08:55;13.73;;;8.32;;
19889;SDS011;10107;51.198;6.824;2024-01-16T21:12:57;16.92;;;8.43;;
19889;SDS011;10107;51.198;6.824;2024-01-16T21:16:59;16.27;;;9.43;;
19889;SDS011;10107;51.198;6.824;2024-01-16T21:21:02;13.93;;;8.55;;
19889;SDS011;10107;51.198;6.824;2024-01-16T21:25:06;15.27;;;8.23;;
19889;SDS011;10107;51.198;6.824;2024-01-16T21:29:08;19.40;;;8.38;;
19889;SDS011;10107;51.198;6.824;2024-01-16T21:33:11;11.50;;;7.78;;
19889;SDS011;10107;51.198;6.824;2024-01-16T21:37:14;11.63;;;7.25;;
19889;SDS011;10107;51.198;6.824;2024-01-16T21:41:16;13.10;;;7.95;;
19889;SDS011;10107;51.198;6.824;2024-01-16T21:45:18;15.60;;;7.80;;
19889;SDS011;10107;51.198;6.824;2024-01-16T21:49:19;12.70;;;7.20;;
19889;SDS011;10107;51.198;6.824;2024-01-16T21:53:22;11.82;;;6.57;;
19889;SDS011;10107;51.198;6.824;2024-01-16T22:01:28;10.30;;;6.57;;
19889;SDS011;10107;51.198;6.824;2024-01-16T22:05:30;11.38;;;6.82;;
19889;SDS011;10107;51.198;6.824;2024-01-16T22:09:34;16.20;;;7.55;;
19889;SDS011;10107;51.198;6.824;2024-01-16T22:13:36;10.07;;;6.90;;
19889;SDS011;10107;51.198;6.824;2024-01-16T22:17:38;13.70;;;7.93;;
19889;SDS011;10107;51.198;6.824;2024-01-16T22:21:40;14.10;;;8.30;;
19889;SDS011;10107;51.198;6.824;2024-01-16T22:25:43;16.60;;;8.40;;
19889;SDS011;10107;51.198;6.824;2024-01-16T22:29:45;13.82;;;8.07;;
19889;SDS011;10107;51.198;6.824;2024-01-16T22:33:46;16.45;;;8.18;;
19889;SDS011;10107;51.198;6.824;2024-01-16T22:37:48;15.43;;;8.40;;
19889;SDS011;10107;51.198;6.824;2024-01-16T22:41:51;15.93;;;8.45;;
19889;SDS011;10107;51.198;6.824;2024-01-16T22:45:53;13.60;;;7.35;;
19889;SDS011;10107;51.198;6.824;2024-01-16T22:49:55;14.65;;;8.15;;
19889;SDS011;10107;51.198;6.824;2024-01-16T22:53:57;16.75;;;8.00;;
19889;SDS011;10107;51.198;6.824;2024-01-16T22:58:00;13.90;;;7.93;;
19889;SDS011;10107;51.198;6.824;2024-01-16T23:02:02;13.73;;;7.88;;
19889;SDS011;10107;51.198;6.824;2024-01-16T23:06:05;14.95;;;8.52;;
19889;SDS011;10107;51.198;6.824;2024-01-16T23:10:07;17.98;;;8.55;;
19889;SDS011;10107;51.198;6.824;2024-01-16T23:14:11;14.53;;;7.87;;
19889;SDS011;10107;51.198;6.824;2024-01-16T23:18:13;16.13;;;8.55;;
19889;SDS011;10107;51.198;6.824;2024-01-16T23:22:15;15.98;;;8.02;;
19889;SDS011;10107;51.198;6.824;2024-01-16T23:26:16;17.20;;;9.00;;
19889;SDS011;10107;51.198;6.824;2024-01-16T23:30:20;19.20;;;9.63;;
19889;SDS011;10107;51.198;6.824;2024-01-16T23:38:23;14.05;;;8.98;;
19889;SDS011;10107;51.198;6.824;2024-01-16T23:42:26;16.63;;;9.02;;
19889;SDS011;10107;51.198;6.824;2024-01-16T23:46:30;16.35;;;9.38;;
19889;SDS011;10107;51.198;6.824;2024-01-16T23:50:34;17.20;;;9.70;;
19889;SDS011;10107;51.198;6.824;2024-01-16T23:54:38;19.55;;;9.88;;
19889;SDS011;10107;51.198;6.824;2024-01-16T23:58:39;17.02;;;9.68;;
